NCAR-RAP Real-Time Weather Data

Output produced by METARs form (16 August 2018  19:24 UTC)
found at http://weather.rap.ucar.edu/surface/
 
RJTO 160800Z 22017KT 9999 FEW010 SCT015 BKN/// 29/26 Q1006
RJTO 160700Z 22019KT 9999 FEW012 SCT015 BKN/// 29/26 Q1006
RJTO 160600Z 22019KT 9999 FEW012 SCT015 BKN/// 29/26 Q1006
RJTO 160500Z 22019KT 9999 FEW013 BKN/// 30/26 Q1007
RJTO 160400Z 22018KT 9999 FEW015 BKN/// 29/25 Q1008
RJTO 160300Z 22018KT 9999 FEW015 BKN/// 29/25 Q1009
RJTO 160200Z 22020KT 9999 FEW015 BKN/// 30/25 Q1009
RJTO 160100Z 22019KT 9999 FEW015 SCT/// 30/25 Q1009
RJTO 160000Z 22019G29KT 9999 FEW015 SCT/// 29/24 Q1009
RJTO 152300Z 22019KT 9999 FEW015 SCT/// 29/24 Q1009
RJTO 150800Z 21011KT 9999 FEW009 SCT120 BKN/// 28/26 Q1013
RJTO 150700Z 22013KT 9999 FEW009 SCT050 BKN/// 28/25 Q1014
RJTO 150600Z 22013KT 9999 FEW007 SCT015 BKN/// 29/26 Q1014
RJTO 150500Z 21013KT 9999 FEW008 SCT190 BKN/// 29/26 Q1014
RJTO 150400Z 18010KT 9999 FEW009 BKN/// 27/26 Q1014
RJTO 150309Z 19013KT 9999 -SHRA FEW009 SCT010 BKN020 26/25 Q1015 RMK 1ST009 3CU010 5CU020 A3000
RJTO 150300Z 19012KT 5000 +SHRA BR FEW007 SCT015 BKN025 26/25 Q1015
RJTO 150208Z 21004KT 130V280 5000 -SHRA BR FEW007 SCT020 BKN025 26/25 Q1016 RMK 1ST007 3CU020 5CU025 A3000
RJTO 150200Z 23007KT 190V280 2000 +SHRA BR FEW009 BKN020 BKN025 26/25 Q1016
RJTO 150100Z 21013KT 9999 FEW010 FEW025TCU BKN/// 30/26 Q1016
RJTO 150000Z 22011KT 9999 FEW012 BKN/// 30/26 Q1016
RJTO 142300Z 22009KT 9999 FEW010 SCT015 BKN/// 28/25 Q1016
RJTO 140800Z 22012KT 9999 FEW012 SCT/// 29/26 Q1014